»·PEaware :: N573BZ KCMA-KSNA

N573BZ :: KCMA-KSNA

FLIGHT INFORMATION

Flight Status: Arrived
Operator: Privately registered:
United States
More flights under this callsign
Pilot: Ed S. (33230)
Aircraft: Unknown
(P28S)
More flights by this aircraft type
Origin: KCMA Camarillo
United States
Destination: KSNA John Wayne-Orange Co
United States
More flights between these airports :: More routes between these airports
Route:
File this flight plan on PilotEdge
Remarks:
Altitude:
(Current/Filed)
5,500ft
Speed:
(Current/Filed)
130kts
Departed: 21-Jan-21 08:33 AM
Arrived: 21-Jan-21 09:15 AM
Distance/Time
Traveled:
69nm/0:42
Distance/Time
To Go:
Arrived

Flight Plot

Page will automatically refresh every two minutes.


Map Options




Map Legend


Flown Route
Filed Route
Departure Airport
Arrival Airport
Navaid (VOR, NDB)
Fix

Horizontal Profiles

Position Reports

Time Latitude Longitude Heading Altitude Ground
Speed
21-Jan-21 08:21 34.210707 -119.091489 0 66ft 0kts
21-Jan-21 08:22 34.210707 -119.091489 0 66ft 0kts
21-Jan-21 08:23 34.210707 -119.091489 0 66ft 0kts
21-Jan-21 08:24 34.210707 -119.091489 0 66ft 0kts
21-Jan-21 08:25 34.210707 -119.091489 0 66ft 0kts
21-Jan-21 08:26 34.210707 -119.091489 0 66ft 0kts
21-Jan-21 08:27 34.210821 -119.091487 1 66ft 4kts
21-Jan-21 08:28 34.210966 -119.089062 90 69ft 15kts
21-Jan-21 08:29 34.210934 -119.084848 77 72ft 2kts
21-Jan-21 08:30 34.212308 -119.084624 359 74ft 12kts
21-Jan-21 08:31 34.212792 -119.084622 357 75ft 0kts
21-Jan-21 08:32 34.213739 -119.088717 273 91ft 72kts
21-Jan-21 08:33 34.215109 -119.114477 308 905ft 107kts
21-Jan-21 08:34 34.241747 -119.111140 76 1537ft 119kts
21-Jan-21 08:35 34.242763 -119.071027 86 2241ft 119kts
21-Jan-21 08:36 34.243244 -119.030997 86 2944ft 119kts
21-Jan-21 08:37 34.243615 -118.991111 86 3648ft 118kts
21-Jan-21 08:38 34.243855 -118.951552 86 4350ft 117kts
21-Jan-21 08:39 34.241849 -118.912246 90 5050ft 117kts
21-Jan-21 08:40 34.238734 -118.872280 93 5500ft 125kts
21-Jan-21 08:41 34.236980 -118.829431 89 5500ft 128kts
21-Jan-21 08:42 34.235540 -118.786346 89 5500ft 128kts
21-Jan-21 08:43 34.234153 -118.743081 89 5502ft 129kts
21-Jan-21 08:44 34.231212 -118.699634 91 5503ft 129kts
21-Jan-21 08:45 34.228627 -118.656074 91 5505ft 130kts
21-Jan-21 08:46 34.226100 -118.612454 91 5507ft 130kts
21-Jan-21 08:47 34.210889 -118.574800 134 5508ft 133kts
21-Jan-21 08:48 34.179140 -118.552520 157 5509ft 134kts
21-Jan-21 08:49 34.144323 -118.535727 157 5509ft 135kts
21-Jan-21 08:50 34.109579 -118.518262 156 5509ft 135kts
21-Jan-21 08:51 34.074699 -118.501467 157 5509ft 135kts
21-Jan-21 08:52 34.039954 -118.483967 155 5509ft 135kts
21-Jan-21 08:53 34.005123 -118.466482 157 5509ft 135kts
21-Jan-21 08:54 33.970216 -118.449738 157 5509ft 134kts
21-Jan-21 08:55 33.935610 -118.432727 145 5506ft 134kts
21-Jan-21 08:56 33.907008 -118.403905 138 5509ft 133kts
21-Jan-21 08:57 33.878705 -118.374998 138 5508ft 133kts
21-Jan-21 08:58 33.850471 -118.345769 136 5508ft 133kts
21-Jan-21 08:59 33.823034 -118.315802 136 5508ft 133kts
21-Jan-21 09:00 33.795469 -118.285719 136 5508ft 133kts
21-Jan-21 09:01 33.767970 -118.255739 136 5508ft 133kts
21-Jan-21 09:02 33.740470 -118.225782 136 5510ft 133kts
21-Jan-21 09:03 33.712963 -118.195628 132 5512ft 133kts
21-Jan-21 09:05 33.698039 -118.153874 107 5096ft 145kts
21-Jan-21 09:06 33.685004 -118.108122 107 4148ft 144kts
21-Jan-21 09:07 33.672266 -118.062763 107 3249ft 142kts
21-Jan-21 09:08 33.660704 -118.021331 107 3105ft 123kts
21-Jan-21 09:09 33.667021 -117.983705 65 3104ft 119kts
21-Jan-21 09:10 33.672525 -117.941314 82 2587ft 136kts
21-Jan-21 09:11 33.677539 -117.895874 66 1811ft 138kts
21-Jan-21 09:12 33.709664 -117.871875 27 1063ft 136kts
21-Jan-21 09:13 33.708592 -117.853085 167 581ft 104kts
21-Jan-21 09:14 33.683138 -117.864085 207 120ft 90kts
21-Jan-21 09:15 33.676047 -117.869983 292 59ft 0kts
21-Jan-21 09:16 33.675758 -117.871220 202 59ft 8kts
21-Jan-21 09:17 33.675645 -117.871291 212 59ft 0kts
21-Jan-21 09:18 33.675645 -117.871291 212 59ft 0kts
21-Jan-21 09:18 33.675645 -117.871291 212 59ft 0kts
21-Jan-21 09:20 33.675645 -117.871291 212 59ft 0kts
21-Jan-21 09:20 33.675645 -117.871291 212 59ft 0kts
21-Jan-21 09:21 33.675645 -117.871291 212 59ft 0kts
21-Jan-21 09:23 33.675645 -117.871291 212 59ft 0kts
21-Jan-21 09:23 33.675645 -117.871291 212 59ft 0kts
21-Jan-21 09:24 33.675645 -117.871291 212 59ft 0kts
21-Jan-21 09:26 33.675645 -117.871291 212 59ft 0kts
21-Jan-21 09:26 33.675645 -117.871291 212 59ft 0kts

Navigation Log

Ident Type
Flight plan parsing failed, navigation log unavailable